createdAt,value
2018-06-14T00:00:20.109Z,80.50
2018-06-14T00:02:48.004Z,80.60
2018-06-14T00:05:15.966Z,80.30
2018-06-14T00:07:43.760Z,80.60
2018-06-14T00:10:12.107Z,80.70
2018-06-14T00:12:40.325Z,81.10
2018-06-14T00:15:09.455Z,81.10
2018-06-14T00:17:37.209Z,81.50
2018-06-14T00:20:05.619Z,80.70
2018-06-14T00:22:33.407Z,81.10
2018-06-14T00:25:01.209Z,81.50
2018-06-14T00:27:29.020Z,81.30
2018-06-14T00:32:24.720Z,81.80
2018-06-14T00:34:52.509Z,81.80
2018-06-14T00:37:20.248Z,81.90
2018-06-14T00:39:48.067Z,81.80
2018-06-14T00:42:15.875Z,81.70
2018-06-14T00:44:43.677Z,81.80
2018-06-14T00:49:39.121Z,82.30
2018-06-14T00:52:06.869Z,82.50
2018-06-14T00:54:34.677Z,82.90
2018-06-14T00:57:13.573Z,83.50
2018-06-14T00:59:41.376Z,83.60
2018-06-14T01:02:09.165Z,83.30
2018-06-14T01:04:36.917Z,83.10
2018-06-14T01:07:04.705Z,82.90
2018-06-14T01:09:32.481Z,82.30
2018-06-14T01:12:00.340Z,81.60
2018-06-14T01:14:28.084Z,81.00
2018-06-14T01:16:55.939Z,81.00
2018-06-14T01:19:23.921Z,80.50
2018-06-14T01:21:51.708Z,79.90
2018-06-14T01:24:19.514Z,79.40
2018-06-14T01:26:47.284Z,79.60
2018-06-14T01:29:15.302Z,79.80
2018-06-14T01:31:43.234Z,79.20
2018-06-14T01:34:11.017Z,79.40
2018-06-14T01:36:38.780Z,79.60
2018-06-14T01:39:07.944Z,79.60
2018-06-14T01:41:36.059Z,80.10
2018-06-14T01:44:03.920Z,80.50
2018-06-14T01:46:31.909Z,79.70
2018-06-14T01:51:27.359Z,79.50
2018-06-14T01:53:55.102Z,79.50
2018-06-14T01:56:23.065Z,78.90
2018-06-14T01:58:50.852Z,79.10
2018-06-14T02:01:18.616Z,78.80
2018-06-14T02:03:46.615Z,79.00
2018-06-14T02:06:14.439Z,78.70
2018-06-14T02:08:42.194Z,79.00
2018-06-14T02:11:10.191Z,79.40
2018-06-14T02:16:08.321Z,79.80
2018-06-14T02:18:37.155Z,79.80
2018-06-14T02:23:32.897Z,80.30
2018-06-14T02:26:00.755Z,80.60
2018-06-14T02:30:56.273Z,78.60
2018-06-14T02:33:24.040Z,79.20
2018-06-14T02:35:52.385Z,79.90
2018-06-14T02:38:21.565Z,80.30
2018-06-14T02:40:49.648Z,80.90
2018-06-14T02:43:17.438Z,80.50
2018-06-14T02:45:45.217Z,80.60
2018-06-14T02:48:12.976Z,80.80
2018-06-14T02:50:40.749Z,80.90
2018-06-14T02:53:08.601Z,81.00
2018-06-14T02:55:36.421Z,81.30
2018-06-14T02:58:04.273Z,81.90
2018-06-14T03:00:32.081Z,81.90
2018-06-14T03:03:00.027Z,81.70
2018-06-14T03:05:28.049Z,81.50
2018-06-14T03:07:55.918Z,81.40
2018-06-14T03:10:23.725Z,81.60
2018-06-14T03:12:51.497Z,82.00
2018-06-14T03:15:19.283Z,82.50
2018-06-14T03:17:47.036Z,82.60
2018-06-14T03:20:14.805Z,82.90
2018-06-14T03:22:42.673Z,82.50
2018-06-14T03:25:10.430Z,82.60
2018-06-14T03:27:38.264Z,82.70
2018-06-14T03:35:01.454Z,83.70
2018-06-14T03:37:29.485Z,83.90
2018-06-14T03:39:57.309Z,84.00
2018-06-14T03:42:25.096Z,83.40
2018-06-14T03:44:53.174Z,82.50
2018-06-14T03:47:21.061Z,81.80
2018-06-14T03:49:48.832Z,82.20
2018-06-14T03:52:16.605Z,83.00
2018-06-14T03:54:44.403Z,83.60
2018-06-14T03:57:12.132Z,84.00
2018-06-14T03:59:40.002Z,83.90
2018-06-14T04:02:07.781Z,84.10
2018-06-14T04:04:35.532Z,83.50
2018-06-14T04:07:03.445Z,83.50
2018-06-14T04:09:31.306Z,84.10
2018-06-14T04:11:59.105Z,83.70
2018-06-14T04:14:26.866Z,83.70
2018-06-14T04:16:54.633Z,84.20
2018-06-14T04:19:22.407Z,84.50
2018-06-14T04:21:50.197Z,83.90
2018-06-14T04:24:17.963Z,83.80
2018-06-14T04:26:45.721Z,83.60
2018-06-14T04:29:13.493Z,83.60
2018-06-14T04:31:41.256Z,83.80
2018-06-14T04:34:09.022Z,84.10
2018-06-14T04:36:36.816Z,84.40
2018-06-14T04:39:07.349Z,84.10
2018-06-14T04:41:35.089Z,83.80
2018-06-14T04:44:02.917Z,83.70
2018-06-14T04:46:30.690Z,83.80
2018-06-14T04:48:58.469Z,84.00
2018-06-14T04:51:26.387Z,84.10
2018-06-14T04:53:54.266Z,83.20
2018-06-14T04:56:22.058Z,83.30
2018-06-14T04:58:49.815Z,83.20
2018-06-14T05:01:17.573Z,83.30
2018-06-14T05:03:45.360Z,82.60
2018-06-14T05:06:13.125Z,81.70
2018-06-14T05:08:40.992Z,81.30
2018-06-14T05:11:08.893Z,81.40
2018-06-14T05:13:36.679Z,81.30
2018-06-14T05:16:04.696Z,81.30
2018-06-14T05:18:32.537Z,81.40
2018-06-14T05:21:00.292Z,80.20
2018-06-14T05:23:28.159Z,79.90
2018-06-14T05:25:55.925Z,79.10
2018-06-14T05:28:23.665Z,79.60
2018-06-14T05:30:51.592Z,79.10
2018-06-14T05:33:19.354Z,79.90
2018-06-14T05:35:47.202Z,79.10
2018-06-14T05:38:15.190Z,79.30
2018-06-14T05:40:43.021Z,78.60
2018-06-14T05:43:10.755Z,78.50
2018-06-14T05:45:38.553Z,78.90
2018-06-14T05:48:06.460Z,79.00
2018-06-14T05:50:34.287Z,79.00
2018-06-14T05:53:02.145Z,78.20
2018-06-14T05:55:29.941Z,77.60
2018-06-14T05:57:57.732Z,76.80
2018-06-14T06:00:25.630Z,75.70
2018-06-14T06:02:53.558Z,75.80
2018-06-14T06:05:21.501Z,73.90
2018-06-14T06:07:49.397Z,72.70
2018-06-14T06:10:17.373Z,72.20
2018-06-14T06:12:45.150Z,72.30
2018-06-14T06:15:12.917Z,73.20
2018-06-14T06:17:40.797Z,73.60
2018-06-14T06:20:17.042Z,71.90
2018-06-14T06:22:45.297Z,71.20
2018-06-14T06:25:13.101Z,70.60
2018-06-14T06:27:41.073Z,71.20
2018-06-14T06:30:08.876Z,69.20
2018-06-14T06:32:36.783Z,69.00
2018-06-14T06:35:04.640Z,68.60
2018-06-14T06:37:32.584Z,66.20
2018-06-14T06:40:00.373Z,67.00
2018-06-14T06:42:28.460Z,66.00
2018-06-14T06:44:56.281Z,65.20
2018-06-14T06:47:24.177Z,64.30
2018-06-14T06:49:52.417Z,63.50
2018-06-14T06:52:20.229Z,61.70
2018-06-14T06:57:16.185Z,57.80
2018-06-14T06:59:44.011Z,56.80
2018-06-14T07:02:11.800Z,57.40
2018-06-14T07:04:39.610Z,57.90
2018-06-14T07:07:07.405Z,57.80
2018-06-14T07:09:35.243Z,56.30
2018-06-14T07:12:03.086Z,55.70
2018-06-14T07:14:30.875Z,55.70
2018-06-14T07:16:58.661Z,53.20
2018-06-14T07:19:26.400Z,51.70
2018-06-14T07:21:54.220Z,48.70
2018-06-14T07:24:21.920Z,47.80
2018-06-14T07:26:49.672Z,48.40
2018-06-14T07:29:17.505Z,45.20
2018-06-14T07:31:45.252Z,45.10
2018-06-14T07:34:13.036Z,46.50
2018-06-14T07:36:40.777Z,46.60
2018-06-14T07:39:10.676Z,46.60
2018-06-14T07:41:38.434Z,45.50
2018-06-14T07:44:06.176Z,45.60
2018-06-14T07:46:34.267Z,45.00
2018-06-14T07:49:02.461Z,45.30
2018-06-14T07:51:30.684Z,45.10
2018-06-14T07:53:58.463Z,46.80
2018-06-14T07:56:26.213Z,48.50
2018-06-14T07:58:54.029Z,44.90
2018-06-14T08:01:21.789Z,45.20
2018-06-14T08:03:49.581Z,46.40
2018-06-14T08:06:17.341Z,46.70
2018-06-14T08:08:45.121Z,49.40
2018-06-14T08:11:12.873Z,49.70
2018-06-14T08:13:40.662Z,48.10
2018-06-14T08:16:08.461Z,49.00
2018-06-14T08:18:36.273Z,47.90
2018-06-14T08:21:04.009Z,48.00
2018-06-14T08:23:32.016Z,47.40
2018-06-14T08:25:59.925Z,47.20
2018-06-14T08:28:27.740Z,47.30
2018-06-14T08:30:55.505Z,46.50
2018-06-14T08:33:23.284Z,46.40
2018-06-14T08:35:51.051Z,46.90
2018-06-14T08:38:18.825Z,46.70
2018-06-14T08:40:46.589Z,46.70
2018-06-14T08:43:14.433Z,45.80
2018-06-14T08:45:42.244Z,45.40
2018-06-14T08:48:10.097Z,44.40
2018-06-14T08:53:05.501Z,43.30
2018-06-14T08:55:33.381Z,42.90
2018-06-14T09:00:28.813Z,42.90
2018-06-14T09:02:56.592Z,42.30
2018-06-14T09:05:24.366Z,40.30
2018-06-14T09:07:52.909Z,41.50
2018-06-14T09:10:20.705Z,41.10
2018-06-14T09:12:48.553Z,41.00
2018-06-14T09:15:16.328Z,39.80
2018-06-14T09:17:44.139Z,40.10
2018-06-14T09:20:11.909Z,39.90
2018-06-14T09:22:39.708Z,39.10
2018-06-14T09:25:07.500Z,40.70
2018-06-14T09:27:35.272Z,37.90
2018-06-14T09:30:03.172Z,39.60
2018-06-14T09:32:30.953Z,38.60
2018-06-14T09:34:58.744Z,40.60
2018-06-14T09:37:26.556Z,41.20
2018-06-14T09:39:54.324Z,41.40
2018-06-14T09:42:22.097Z,40.10
2018-06-14T09:44:49.885Z,41.50
2018-06-14T09:47:17.653Z,41.20
2018-06-14T09:49:45.460Z,40.90
2018-06-14T09:52:13.272Z,38.50
2018-06-14T09:54:41.032Z,39.70
2018-06-14T09:57:08.792Z,40.30
2018-06-14T09:59:36.549Z,39.20
2018-06-14T10:02:04.439Z,38.20
2018-06-14T10:04:32.269Z,39.10
2018-06-14T10:07:00.031Z,37.70
2018-06-14T10:09:27.824Z,37.40
2018-06-14T10:11:55.617Z,37.50
2018-06-14T10:14:23.405Z,37.70
2018-06-14T10:16:51.228Z,37.20
2018-06-14T10:19:19.029Z,36.90
2018-06-14T10:21:46.809Z,37.90
2018-06-14T10:24:14.573Z,38.60
2018-06-14T10:26:42.361Z,40.50
2018-06-14T10:29:10.121Z,41.40
2018-06-14T10:31:37.913Z,42.70
2018-06-14T10:34:05.697Z,39.80
2018-06-14T10:36:33.511Z,40.10
2018-06-14T10:39:01.330Z,38.80
2018-06-14T10:41:29.101Z,40.00
2018-06-14T10:43:56.853Z,41.20
2018-06-14T10:46:24.646Z,40.60
2018-06-14T10:48:52.446Z,38.70
2018-06-14T10:51:20.180Z,40.40
2018-06-14T10:53:47.945Z,40.40
2018-06-14T10:56:15.729Z,39.10
2018-06-14T10:58:43.509Z,39.20
2018-06-14T11:01:11.249Z,39.00
2018-06-14T11:03:39.027Z,38.80
2018-06-14T11:06:06.792Z,40.60
2018-06-14T11:08:34.560Z,40.40
2018-06-14T11:11:02.341Z,39.10
2018-06-14T11:13:30.090Z,39.20
2018-06-14T11:15:57.847Z,38.50
2018-06-14T11:18:25.618Z,37.30
2018-06-14T11:20:53.538Z,37.70
2018-06-14T11:23:21.298Z,37.10
2018-06-14T11:25:49.060Z,38.10
2018-06-14T11:28:16.877Z,38.30
2018-06-14T11:30:44.645Z,38.30
2018-06-14T11:33:12.465Z,37.90
2018-06-14T11:38:07.860Z,35.90
2018-06-14T11:40:35.640Z,35.50
2018-06-14T11:43:03.452Z,36.70
2018-06-14T11:45:31.229Z,39.20
2018-06-14T11:47:59.040Z,38.90
2018-06-14T11:50:26.794Z,37.90
2018-06-14T11:55:22.186Z,37.70
2018-06-14T11:57:49.928Z,35.80
2018-06-14T12:00:17.712Z,36.80
2018-06-14T12:02:45.509Z,36.30
2018-06-14T12:05:13.296Z,35.00
2018-06-14T12:07:41.048Z,35.80
2018-06-14T12:10:08.828Z,35.30
2018-06-14T12:12:36.573Z,35.40
2018-06-14T12:15:04.380Z,38.40
2018-06-14T12:17:32.133Z,37.50
2018-06-14T12:19:59.908Z,37.20
2018-06-14T12:22:27.653Z,39.50
2018-06-14T12:24:55.433Z,39.10
2018-06-14T12:27:23.227Z,39.20
2018-06-14T12:29:51.005Z,39.50
2018-06-14T12:32:18.793Z,37.90
2018-06-14T12:34:46.556Z,37.80
2018-06-14T12:37:14.340Z,38.40
2018-06-14T12:39:42.120Z,36.60
2018-06-14T12:44:37.513Z,39.60
2018-06-14T12:47:05.313Z,42.40
2018-06-14T12:49:33.088Z,41.00
2018-06-14T12:52:00.844Z,39.30
2018-06-14T12:54:28.616Z,38.90
2018-06-14T12:56:56.385Z,39.00
2018-06-14T12:59:24.177Z,40.70
2018-06-14T13:01:51.985Z,39.60
2018-06-14T13:04:19.806Z,39.80
2018-06-14T13:06:47.573Z,39.40
2018-06-14T13:09:15.411Z,39.70
2018-06-14T13:14:11.228Z,40.70
2018-06-14T13:16:39.020Z,41.50
2018-06-14T13:19:06.768Z,42.00
2018-06-14T13:24:02.208Z,40.80
2018-06-14T13:26:29.973Z,40.50
2018-06-14T13:28:57.728Z,40.60
2018-06-14T13:33:53.191Z,41.40
2018-06-14T13:36:21.012Z,39.50
2018-06-14T13:41:16.404Z,40.70
2018-06-14T13:43:44.213Z,40.50
2018-06-14T13:46:12.007Z,40.80
2018-06-14T13:48:39.845Z,39.80
2018-06-14T13:51:07.568Z,40.40
2018-06-14T13:53:35.335Z,41.00
2018-06-14T13:56:03.189Z,41.70
2018-06-14T13:58:30.964Z,41.80
2018-06-14T14:00:58.795Z,40.40
2018-06-14T14:03:26.659Z,41.00
2018-06-14T14:05:54.460Z,42.30
2018-06-14T14:08:22.257Z,42.50
2018-06-14T14:13:17.786Z,42.40
2018-06-14T14:18:13.271Z,42.50
2018-06-14T14:20:41.345Z,40.20
2018-06-14T14:23:09.636Z,42.20
2018-06-14T14:25:37.449Z,44.20
2018-06-14T14:28:05.345Z,41.60
2018-06-14T14:30:33.120Z,42.10
2018-06-14T14:33:00.898Z,41.20
2018-06-14T14:35:28.684Z,41.20
2018-06-14T14:37:56.501Z,42.40
2018-06-14T14:40:24.288Z,42.20
2018-06-14T14:42:52.081Z,42.40
2018-06-14T14:45:19.901Z,42.90
2018-06-14T14:47:47.829Z,44.00
2018-06-14T14:50:15.589Z,43.60
2018-06-14T14:52:43.389Z,41.30
2018-06-14T14:55:11.155Z,42.90
2018-06-14T14:57:38.957Z,41.30
2018-06-14T15:00:06.758Z,40.40
2018-06-14T15:02:34.569Z,41.10
2018-06-14T15:05:02.388Z,38.60
2018-06-14T15:07:30.256Z,39.40
2018-06-14T15:09:58.012Z,39.80
2018-06-14T15:14:53.429Z,41.60
2018-06-14T15:17:21.230Z,41.10
2018-06-14T15:19:49.420Z,41.00
2018-06-14T15:22:17.140Z,40.60
2018-06-14T15:24:44.909Z,40.20
2018-06-14T15:29:41.084Z,40.70
2018-06-14T15:32:08.886Z,41.70
2018-06-14T15:34:36.657Z,40.50
2018-06-14T15:37:04.506Z,39.20
2018-06-14T15:39:32.357Z,39.90
2018-06-14T15:42:00.141Z,39.30
2018-06-14T15:44:27.897Z,39.40
2018-06-14T15:46:55.692Z,38.70
2018-06-14T15:49:23.568Z,38.30
2018-06-14T15:51:51.365Z,38.50
2018-06-14T15:54:19.197Z,38.60
2018-06-14T15:56:46.964Z,39.30
2018-06-14T15:59:15.630Z,38.40
2018-06-14T16:01:43.429Z,37.50
2018-06-14T16:06:39.125Z,40.00
2018-06-14T16:09:10.213Z,40.50
2018-06-14T16:11:40.800Z,40.50
2018-06-14T16:14:08.580Z,40.30
2018-06-14T16:16:36.361Z,41.50
2018-06-14T16:19:04.425Z,40.90
2018-06-14T16:21:32.199Z,42.00
2018-06-14T16:23:59.975Z,40.70
2018-06-14T16:26:27.745Z,40.00
2018-06-14T16:28:55.554Z,39.80
2018-06-14T16:31:23.997Z,40.80
2018-06-14T16:33:51.843Z,41.10
2018-06-14T16:36:19.644Z,41.40
2018-06-14T16:38:47.436Z,40.70
2018-06-14T16:41:15.277Z,41.30
2018-06-14T16:43:43.046Z,41.40
2018-06-14T16:46:10.898Z,42.00
2018-06-14T16:48:38.688Z,41.20
2018-06-14T16:51:06.578Z,41.80
2018-06-14T16:53:34.335Z,41.50
2018-06-14T16:56:02.165Z,40.80
2018-06-14T16:58:29.909Z,41.40
2018-06-14T17:00:57.693Z,41.80
2018-06-14T17:03:25.489Z,42.80
2018-06-14T17:09:05.913Z,42.60
2018-06-14T17:17:29.380Z,42.90
2018-06-14T17:22:24.803Z,43.30
2018-06-14T17:24:52.561Z,43.00
2018-06-14T17:27:20.305Z,43.40
2018-06-14T17:29:48.081Z,43.00
2018-06-14T17:32:17.953Z,43.80
2018-06-14T17:34:45.733Z,43.10
2018-06-14T17:37:17.605Z,43.00
2018-06-14T17:39:45.465Z,43.00
2018-06-14T17:42:13.305Z,43.90
2018-06-14T17:44:41.093Z,44.10
2018-06-14T17:47:08.881Z,44.30
2018-06-14T17:49:36.637Z,44.50
2018-06-14T17:52:04.445Z,44.80
2018-06-14T17:54:32.309Z,44.30
2018-06-14T17:57:00.130Z,44.70
2018-06-14T18:01:55.589Z,44.90
2018-06-14T18:04:23.674Z,45.40
2018-06-14T18:06:51.921Z,45.50
2018-06-14T18:09:20.769Z,45.60
2018-06-14T18:11:48.965Z,45.40
2018-06-14T18:14:17.381Z,45.70
2018-06-14T18:16:45.554Z,45.60
2018-06-14T18:19:13.853Z,46.00
2018-06-14T18:21:41.724Z,46.80
2018-06-14T18:24:09.464Z,46.70
2018-06-14T18:26:37.249Z,47.10
2018-06-14T18:29:05.077Z,46.80
2018-06-14T18:31:32.917Z,46.80
2018-06-14T18:34:00.673Z,46.90
2018-06-14T18:36:28.419Z,46.90
2018-06-14T18:38:56.233Z,46.90
2018-06-14T18:41:24.010Z,47.20
2018-06-14T18:43:51.778Z,47.40
2018-06-14T18:46:20.473Z,47.90
2018-06-14T18:48:48.257Z,47.70
2018-06-14T18:51:16.065Z,48.10
2018-06-14T18:53:43.827Z,48.20
2018-06-14T18:56:11.565Z,48.80
2018-06-14T18:58:39.351Z,49.40
2018-06-14T19:01:07.183Z,49.10
2018-06-14T19:03:34.989Z,49.60
2018-06-14T19:08:30.417Z,50.40
2018-06-14T19:10:58.180Z,51.00
2018-06-14T19:13:25.952Z,51.20
2018-06-14T19:15:54.241Z,50.70
2018-06-14T19:18:22.556Z,52.20
2018-06-14T19:20:50.758Z,53.60
2018-06-14T19:23:19.090Z,54.40
2018-06-14T19:25:47.148Z,55.10
2018-06-14T19:28:14.932Z,55.60
2018-06-14T19:30:42.711Z,55.30
2018-06-14T19:33:10.626Z,56.20
2018-06-14T19:35:38.400Z,56.50
2018-06-14T19:38:06.184Z,57.20
2018-06-14T19:40:33.945Z,57.20
2018-06-14T19:43:01.733Z,57.60
2018-06-14T19:45:29.553Z,57.70
2018-06-14T19:47:57.353Z,57.60
2018-06-14T19:50:25.131Z,57.90
2018-06-14T19:52:53.077Z,57.90
2018-06-14T19:55:20.901Z,58.00
2018-06-14T19:57:48.677Z,58.40
2018-06-14T20:00:16.446Z,58.80
2018-06-14T20:02:45.101Z,59.00
2018-06-14T20:05:12.892Z,59.00
2018-06-14T20:07:40.661Z,59.40
2018-06-14T20:10:08.436Z,59.60
2018-06-14T20:12:36.221Z,59.50
2018-06-14T20:15:04.078Z,59.60
2018-06-14T20:17:31.843Z,59.70
2018-06-14T20:19:59.671Z,59.90
2018-06-14T20:24:56.350Z,60.50
2018-06-14T20:27:24.701Z,60.60
2018-06-14T20:29:52.829Z,60.90
2018-06-14T20:32:21.149Z,61.10
2018-06-14T20:34:49.619Z,61.20
2018-06-14T20:37:17.805Z,61.30
2018-06-14T20:39:46.001Z,61.20
2018-06-14T20:42:14.216Z,61.30
2018-06-14T20:44:42.406Z,61.60
2018-06-14T20:47:10.673Z,61.80
2018-06-14T20:49:38.841Z,61.70
2018-06-14T20:52:07.223Z,61.90
2018-06-14T20:54:35.364Z,62.00
2018-06-14T20:57:03.570Z,62.00
2018-06-14T20:59:32.063Z,62.00
2018-06-14T21:02:01.566Z,62.50
2018-06-14T21:04:29.859Z,62.60
2018-06-14T21:09:26.053Z,62.80
2018-06-14T21:11:54.275Z,63.70
2018-06-14T21:14:22.457Z,63.30
2018-06-14T21:19:18.729Z,62.60
2018-06-14T21:21:46.938Z,62.60
2018-06-14T21:24:15.213Z,63.00
2018-06-14T21:26:43.486Z,63.00
2018-06-14T21:29:11.668Z,63.10
2018-06-14T21:31:39.866Z,63.00
2018-06-14T21:34:08.039Z,63.10
2018-06-14T21:36:36.266Z,63.70
2018-06-14T21:39:06.700Z,63.90
2018-06-14T21:41:34.889Z,64.20
2018-06-14T21:44:03.224Z,64.80
2018-06-14T21:46:31.751Z,64.90
2018-06-14T21:48:59.791Z,65.20
2018-06-14T21:53:55.981Z,65.20
2018-06-14T21:56:24.606Z,64.90
2018-06-14T21:58:52.421Z,64.50
2018-06-14T22:01:20.174Z,64.90
2018-06-14T22:03:53.603Z,65.20
2018-06-14T22:06:21.797Z,65.00
2018-06-14T22:11:17.873Z,65.90
2018-06-14T22:13:45.659Z,66.20
2018-06-14T22:16:13.529Z,66.40
2018-06-14T22:18:41.288Z,67.00
2018-06-14T22:21:09.063Z,67.10
2018-06-14T22:23:36.897Z,66.60
2018-06-14T22:26:04.813Z,66.70
2018-06-14T22:28:32.732Z,67.30
2018-06-14T22:31:00.620Z,67.60
2018-06-14T22:35:37.685Z,67.90
2018-06-14T22:38:05.820Z,68.20
2018-06-14T22:40:33.652Z,68.30
2018-06-14T22:43:01.493Z,68.60
2018-06-14T22:45:29.280Z,68.80
2018-06-14T22:47:57.061Z,69.10
2018-06-14T22:50:36.164Z,69.30
2018-06-14T22:53:06.985Z,69.30
2018-06-14T22:55:34.791Z,69.40
2018-06-14T22:58:02.647Z,69.30
2018-06-14T23:01:47.545Z,69.40
2018-06-14T23:04:17.533Z,69.30
2018-06-14T23:06:45.316Z,69.80
2018-06-14T23:10:25.340Z,69.60
2018-06-14T23:12:53.266Z,69.60
2018-06-14T23:15:21.297Z,69.80
2018-06-14T23:17:49.613Z,70.10
2018-06-14T23:20:20.420Z,70.10
2018-06-14T23:22:49.150Z,69.60
2018-06-14T23:25:17.809Z,69.80
2018-06-14T23:27:45.593Z,69.60
2018-06-14T23:30:13.357Z,69.70
2018-06-14T23:32:41.154Z,69.90
2018-06-14T23:35:08.896Z,70.10
2018-06-14T23:37:36.681Z,69.60
2018-06-14T23:40:04.721Z,70.00
2018-06-14T23:42:32.493Z,69.80
2018-06-14T23:45:00.261Z,70.10
2018-06-14T23:47:28.122Z,70.30
2018-06-14T23:49:56.273Z,70.50
2018-06-14T23:52:24.070Z,70.60
2018-06-14T23:54:51.840Z,70.20
2018-06-14T23:57:19.773Z,70.20
2018-06-14T23:59:47.812Z,69.80
